Time;durP1;ratioP1;P1;durP2;ratioP2;P2;SDS_P1;SDS_P2;PMS_P1;PMS_P2;Temp;Humidity;BMP_temperature;BMP_pressure;BME280_temperature;BME280_humidity;BME280_pressure;Samples;Min_cycle;Max_cycle;Signal;HPM_P1;HPM_P2
2023/10/05 07:50:23;;;;;;;3.07;2.10;;;;;;;15.77;100.00;100300.19;5062241;23;20252;-86
2023/10/05 07:52:58;;;;;;;4.33;2.20;;;;;;;16.06;100.00;100297.53;4920842;29;20221;-89
2023/10/05 07:55:32;;;;;;;6.63;2.53;;;;;;;16.27;100.00;100296.91;4901076;29;20217;-89
2023/10/05 07:58:20;;;;;;;2.40;2.00;;;;;;;16.48;100.00;100290.81;4904607;29;20220;-89
2023/10/05 08:00:54;;;;;;;4.10;2.20;;;;;;;16.64;100.00;100300.06;4919078;29;20206;-90
2023/10/05 08:03:23;;;;;;;4.93;2.27;;;;;;;16.80;100.00;100290.34;4922477;29;20224;-90
2023/10/05 08:05:55;;;;;;;3.03;2.07;;;;;;;16.92;100.00;100288.38;4923263;29;20201;-92
2023/10/05 08:08:27;;;;;;;4.73;2.40;;;;;;;17.02;100.00;100292.09;4914489;29;20603;-90
2023/10/05 08:10:56;;;;;;;5.97;2.10;;;;;;;17.09;100.00;100290.03;4922724;29;20256;-92
2023/10/05 08:13:24;;;;;;;3.10;1.97;;;;;;;17.21;100.00;100295.38;4914172;29;20232;-90
2023/10/05 08:15:53;;;;;;;3.67;2.10;;;;;;;17.31;100.00;100295.50;4911486;29;20206;-90
2023/10/05 08:18:22;;;;;;;4.97;2.27;;;;;;;17.29;100.00;100302.25;4910850;29;20200;-90
2023/10/05 08:20:53;;;;;;;3.00;2.10;;;;;;;17.44;100.00;100294.38;4924488;29;20185;-92
2023/10/05 08:23:20;;;;;;;5.80;2.20;;;;;;;17.53;100.00;100295.56;4903781;29;20203;-90
2023/10/05 08:25:49;;;;;;;6.00;2.50;;;;;;;17.31;100.00;100286.59;4929516;29;20284;-92
2023/10/05 08:28:24;;;;;;;4.37;2.03;;;;;;;17.48;100.00;100285.50;4912819;29;20209;-92
2023/10/05 08:31:11;;;;;;;4.50;2.20;;;;;;;17.70;100.00;100282.00;4911713;29;20209;-92
2023/10/05 08:33:42;;;;;;;4.13;2.00;;;;;;;17.89;100.00;100289.59;4926116;29;20785;-92
2023/10/05 08:36:14;;;;;;;5.17;2.17;;;;;;;17.98;100.00;100285.38;4882970;29;20197;-92
2023/10/05 08:38:47;;;;;;;5.17;2.10;;;;;;;18.00;100.00;100283.25;4903611;29;20213;-92
2023/10/05 08:41:31;;;;;;;3.83;2.20;;;;;;;18.02;100.00;100282.97;4890623;29;20206;-91
2023/10/05 08:44:26;;;;;;;4.00;2.20;;;;;;;17.99;100.00;100278.88;4901373;29;20202;-91
2023/10/05 08:47:00;;;;;;;5.00;2.17;;;;;;;17.64;100.00;100275.69;4935631;29;20209;-92
2023/10/05 08:49:33;;;;;;;3.67;2.20;;;;;;;17.51;100.00;100271.44;4903788;29;20240;-92
2023/10/05 08:52:13;;;;;;;3.90;2.37;;;;;;;17.50;100.00;100271.66;4909109;29;20265;-92
2023/10/05 08:54:45;;;;;;;3.93;2.13;;;;;;;17.58;100.00;100268.56;4923050;29;20221;-92
2023/10/05 08:57:17;;;;;;;5.93;2.57;;;;;;;17.60;100.00;100271.84;4911371;29;20228;-91
2023/10/05 08:59:49;;;;;;;5.87;2.43;;;;;;;17.64;100.00;100278.41;4939125;29;20205;-92
2023/10/05 09:02:24;;;;;;;4.60;2.10;;;;;;;17.70;100.00;100271.16;4910984;29;20284;-91
2023/10/05 09:04:59;;;;;;;6.10;2.10;;;;;;;17.78;100.00;100268.03;4911624;29;20722;-91
2023/10/05 09:07:38;;;;;;;3.20;2.03;;;;;;;17.74;100.00;100267.72;4908813;29;20205;-91
2023/10/05 09:10:24;;;;;;;6.87;2.20;;;;;;;17.93;100.00;100270.94;4913620;29;20215;-91
2023/10/05 09:13:07;;;;;;;2.83;2.17;;;;;;;18.21;100.00;100265.31;4914516;29;20210;-92
2023/10/05 09:15:50;;;;;;;4.13;2.00;;;;;;;18.50;100.00;100263.19;4900454;29;20206;-91
2023/10/05 09:18:25;;;;;;;3.73;1.90;;;;;;;18.70;100.00;100259.88;4915144;29;20305;-91
2023/10/05 09:20:55;;;;;;;3.60;2.17;;;;;;;18.93;100.00;100251.41;4930451;29;20232;-91
2023/10/05 09:23:31;;;;;;;5.97;2.43;;;;;;;18.84;100.00;100251.06;4900387;29;20227;-91
2023/10/05 09:26:01;;;;;;;4.73;2.63;;;;;;;18.90;100.00;100244.56;4927864;29;20206;-91
2023/10/05 09:28:44;;;;;;;5.80;2.10;;;;;;;18.95;100.00;100248.41;4949853;29;20206;-91
2023/10/05 09:31:16;;;;;;;4.30;2.10;;;;;;;19.03;100.00;100243.34;4930766;29;20219;-92
2023/10/05 09:33:53;;;;;;;5.00;2.37;;;;;;;19.14;100.00;100234.16;4906400;29;20230;-91
2023/10/05 09:36:27;;;;;;;5.47;2.30;;;;;;;19.25;100.00;100244.03;4917529;29;20246;-91
2023/10/05 09:39:00;;;;;;;5.10;2.33;;;;;;;19.25;100.00;100240.50;4912833;29;20302;-91
2023/10/05 09:41:29;;;;;;;7.87;2.30;;;;;;;19.41;100.00;100244.13;4953930;29;20197;-91
2023/10/05 09:43:58;;;;;;;5.47;2.20;;;;;;;19.54;100.00;100238.25;4925617;29;20220;-91
2023/10/05 09:46:34;;;;;;;5.07;2.30;;;;;;;19.65;100.00;100235.31;4926264;29;20208;-90
2023/10/05 09:49:05;;;;;;;5.40;2.57;;;;;;;19.74;100.00;100236.44;4941953;29;20628;-91
2023/10/05 09:51:36;;;;;;;4.57;2.20;;;;;;;19.88;100.00;100242.22;4944914;29;20200;-90
2023/10/05 09:54:14;;;;;;;4.23;2.10;;;;;;;20.09;100.00;100238.50;4940957;29;20227;-91
2023/10/05 09:56:43;;;;;;;5.60;2.40;;;;;;;20.17;100.00;100237.16;4911677;29;20206;-89
2023/10/05 09:59:16;;;;;;;4.90;2.40;;;;;;;20.32;99.14;100225.53;4898560;29;20211;-90
2023/10/05 10:01:47;;;;;;;4.80;2.30;;;;;;;20.37;96.34;100220.09;4907008;29;20226;-90
2023/10/05 10:04:34;;;;;;;2.63;2.00;;;;;;;20.45;95.97;100219.56;4914345;29;20211;-91
2023/10/05 10:07:22;;;;;;;3.90;2.20;;;;;;;20.30;95.43;100211.31;4912675;29;20217;-90
2023/10/05 10:09:58;;;;;;;3.60;2.20;;;;;;;20.35;93.21;100208.66;4907716;29;20599;-90
2023/10/05 10:12:33;;;;;;;4.13;2.20;;;;;;;20.19;94.03;100208.63;4917000;29;20219;-91
2023/10/05 10:15:24;;;;;;;5.00;2.33;;;;;;;20.33;91.89;100217.09;4927545;29;20227;-91
2023/10/05 10:18:09;;;;;;;5.10;2.37;;;;;;;20.34;90.86;100215.19;4928688;29;20203;-90
2023/10/05 10:20:45;;;;;;;4.17;2.10;;;;;;;19.90;90.87;100215.59;4933294;29;20686;-90
2023/10/05 10:23:21;;;;;;;4.67;2.20;;;;;;;19.86;90.89;100211.78;4909353;29;20279;-90
2023/10/05 10:26:05;;;;;;;3.90;2.13;;;;;;;19.96;92.13;100208.28;4900765;29;20222;-91
2023/10/05 10:31:53;;;;;;;4.00;2.10;;;;;;;20.18;89.15;100190.66;4937845;29;20744;-89
2023/10/05 10:35:26;;;;;;;3.50;2.30;;;;;;;20.22;89.44;100186.28;4921354;29;20228;-87
2023/10/05 10:37:55;;;;;;;4.20;1.90;;;;;;;20.09;90.12;100186.00;4935131;29;20244;-89
2023/10/05 10:45:44;;;;;;;3.93;2.37;;;;;;;20.37;89.04;100166.50;4924128;29;20679;-90
2023/10/05 10:48:20;;;;;;;2.77;2.10;;;;;;;19.52;92.67;100158.88;4929668;29;20294;-90
2023/10/05 10:50:52;;;;;;;3.60;2.33;;;;;;;19.33;92.10;100166.66;4929583;29;20213;-91
2023/10/05 10:53:25;;;;;;;3.27;2.23;;;;;;;19.57;93.06;100169.78;4915114;29;20299;-91
2023/10/05 10:56:18;;;;;;;5.80;2.10;;;;;;;20.07;91.21;100164.50;4911163;29;20233;-91
2023/10/05 10:58:48;;;;;;;4.33;2.10;;;;;;;19.79;91.26;100145.94;4922747;29;20205;-91
2023/10/05 11:01:29;;;;;;;3.93;2.00;;;;;;;20.12;90.70;100141.94;4932494;29;20206;-89
2023/10/05 11:04:04;;;;;;;3.50;2.00;;;;;;;20.14;89.64;100140.59;4919502;29;20222;-90
2023/10/05 11:06:38;;;;;;;2.53;2.00;;;;;;;20.19;89.49;100147.94;4934139;29;20205;-91
2023/10/05 11:09:10;;;;;;;2.97;2.03;;;;;;;20.35;89.13;100130.56;4916895;29;20215;-88
2023/10/05 11:11:46;;;;;;;3.57;1.90;;;;;;;20.53;90.18;100137.38;4901768;29;20244;-90
2023/10/05 11:14:31;;;;;;;4.13;1.90;;;;;;;20.58;87.18;100135.47;4906234;29;20233;-88
2023/10/05 11:17:11;;;;;;;3.63;1.97;;;;;;;20.73;87.25;100129.19;4906555;29;20216;-90
2023/10/05 11:19:46;;;;;;;3.43;1.67;;;;;;;20.85;86.02;100107.94;4905989;29;20297;-88
2023/10/05 11:22:24;;;;;;;2.43;1.70;;;;;;;20.79;85.74;100111.75;4899940;29;20208;-88
2023/10/05 11:25:14;;;;;;;3.30;2.17;;;;;;;20.76;84.13;100116.94;4906489;29;20222;-90
2023/10/05 11:27:44;;;;;;;3.17;2.10;;;;;;;20.53;84.64;100119.13;4896026;29;20209;-90
2023/10/05 11:30:21;;;;;;;3.25;1.90;;;;;;;20.81;85.12;100116.94;4919941;29;20213;-88
2023/10/05 11:33:16;;;;;;;2.17;1.80;;;;;;;20.95;83.54;100104.38;4907069;29;20253;-90
2023/10/05 11:36:21;;;;;;;4.43;2.07;;;;;;;20.86;84.03;100106.00;4914876;29;20229;-90
2023/10/05 11:39:03;;;;;;;5.20;2.00;;;;;;;20.64;85.51;100115.31;4917507;29;20267;-90
2023/10/05 11:41:33;;;;;;;2.67;2.03;;;;;;;20.67;86.89;100110.44;4909521;29;20641;-90
2023/10/05 11:44:11;;;;;;;2.60;1.97;;;;;;;20.80;85.38;100101.69;4907675;29;20204;-88
2023/10/05 11:46:46;;;;;;;2.38;1.73;;;;;;;20.79;83.90;100095.41;4922007;29;20211;-90
2023/10/05 11:49:33;;;;;;;3.80;2.20;;;;;;;20.95;83.78;100102.44;4921299;29;20233;-89
2023/10/05 11:52:11;;;;;;;4.47;2.22;;;;;;;20.88;86.46;100103.84;4922247;29;20207;-89
2023/10/05 11:54:45;;;;;;;2.67;2.03;;;;;;;20.83;83.82;100101.13;4904905;29;20224;-90
2023/10/05 11:57:20;;;;;;;4.20;1.90;;;;;;;20.75;85.51;100096.25;4925166;29;20193;-89
2023/10/05 11:59:47;;;;;;;4.87;1.67;;;;;;;20.96;84.86;100093.19;4935971;29;20286;-89
2023/10/05 12:02:17;;;;;;;3.28;1.83;;;;;;;21.16;84.15;100092.34;4896974;29;20202;-89
2023/10/05 12:04:48;;;;;;;5.33;1.80;;;;;;;21.34;82.67;100083.56;4878105;29;20226;-88
2023/10/05 12:07:17;;;;;;;2.50;2.13;;;;;;;21.48;81.83;100090.03;4930237;29;20212;-89
2023/10/05 12:09:47;;;;;;;3.72;1.90;;;;;;;21.64;81.22;100085.34;4903510;29;20670;-89
2023/10/05 12:12:18;;;;;;;2.53;1.90;;;;;;;21.83;80.19;100090.94;4903473;29;20238;-90
2023/10/05 12:14:47;;;;;;;3.78;2.00;;;;;;;21.94;79.71;100093.34;4919810;29;20256;-89
2023/10/05 12:17:18;;;;;;;2.65;2.08;;;;;;;21.80;79.91;100089.59;4913624;29;20230;-89
2023/10/05 12:19:52;;;;;;;2.45;2.20;;;;;;;21.90;78.80;100084.06;4898913;29;20223;-89
2023/10/05 12:22:21;;;;;;;4.68;1.88;;;;;;;21.91;78.58;100080.25;4881638;29;20238;-89
2023/10/05 12:24:50;;;;;;;3.03;2.10;;;;;;;21.82;78.73;100081.13;4899094;29;20198;-90
2023/10/05 12:27:22;;;;;;;2.28;2.00;;;;;;;21.80;78.51;100084.13;4901970;29;20210;-89
2023/10/05 12:29:52;;;;;;;3.83;2.08;;;;;;;21.77;77.60;100075.69;4900298;29;20213;-89
2023/10/05 12:32:27;;;;;;;3.72;1.88;;;;;;;21.80;78.21;100092.31;4917733;29;20230;-89
2023/10/05 12:34:59;;;;;;;3.88;1.80;;;;;;;21.75;79.13;100080.63;4897959;29;20706;-89
2023/10/05 12:37:29;;;;;;;5.55;2.35;;;;;;;21.99;77.15;100091.69;4900191;29;20269;-89
2023/10/05 12:39:57;;;;;;;4.85;1.92;;;;;;;21.86;78.53;100082.19;4886515;29;20678;-88
2023/10/05 12:42:30;;;;;;;2.92;2.22;;;;;;;21.93;78.21;100088.16;4902581;29;20202;-89
2023/10/05 12:45:04;;;;;;;3.70;2.17;;;;;;;21.67;79.38;100082.03;4894859;29;20210;-89
2023/10/05 12:47:36;;;;;;;3.63;2.50;;;;;;;21.88;77.27;100074.56;4922436;29;20214;-89
2023/10/05 12:50:04;;;;;;;4.63;2.08;;;;;;;21.92;77.76;100060.06;4873491;29;20250;-89
2023/10/05 12:52:38;;;;;;;3.95;2.05;;;;;;;21.79;77.27;100066.13;4896621;29;20675;-89
2023/10/05 12:55:09;;;;;;;3.33;1.92;;;;;;;22.12;78.02;100056.38;4879904;29;20218;-88
2023/10/05 12:57:39;;;;;;;3.70;1.98;;;;;;;22.29;77.25;100040.41;4898633;29;20206;-88
2023/10/05 13:00:19;;;;;;;3.78;2.20;;;;;;;22.27;76.73;100049.97;4914950;29;20797;-89
2023/10/05 13:03:00;;;;;;;4.20;2.20;;;;;;;22.42;76.79;100040.84;4862204;29;20703;-89
2023/10/05 13:05:47;;;;;;;4.13;2.05;;;;;;;22.71;75.33;100041.69;4882032;29;20238;-89
2023/10/05 13:08:16;;;;;;;2.78;2.22;;;;;;;23.04;74.73;100048.13;4885443;29;20212;-88
2023/10/05 13:10:48;;;;;;;3.55;1.80;;;;;;;23.34;73.42;100038.72;4908344;29;20676;-88
2023/10/05 13:13:21;;;;;;;3.95;2.30;;;;;;;23.62;72.51;100046.03;4915750;29;20277;-88
2023/10/05 13:16:06;;;;;;;2.63;2.10;;;;;;;23.80;71.74;100039.72;4907766;29;20321;-88
2023/10/05 13:18:42;;;;;;;4.78;2.22;;;;;;;23.89;71.61;100028.94;4899361;29;20210;-88
2023/10/05 13:21:14;;;;;;;2.55;2.00;;;;;;;23.84;70.98;100021.63;4867850;29;20727;-88
2023/10/05 13:23:42;;;;;;;2.03;1.73;;;;;;;23.85;70.42;100019.69;4896605;29;20199;-88
2023/10/05 13:26:10;;;;;;;2.83;1.90;;;;;;;23.85;71.18;100014.22;4881222;29;20288;-88
2023/10/05 13:28:38;;;;;;;2.67;1.98;;;;;;;23.93;70.20;100019.84;4881954;29;20207;-88
2023/10/05 13:31:12;;;;;;;4.25;2.13;;;;;;;24.00;68.82;100011.25;4886297;29;20289;-88
2023/10/05 13:33:48;;;;;;;4.53;1.98;;;;;;;23.97;68.84;100009.94;4914840;29;20283;-88
2023/10/05 13:36:18;;;;;;;4.20;2.10;;;;;;;23.49;69.39;100009.28;4911883;29;20225;-88
2023/10/05 13:38:51;;;;;;;4.22;2.13;;;;;;;23.65;69.00;100004.41;4900400;29;20375;-88
2023/10/05 13:41:19;;;;;;;3.40;2.22;;;;;;;23.65;69.94;100002.50;4881664;29;20267;-88
2023/10/05 13:43:53;;;;;;;2.95;2.22;;;;;;;23.62;70.21;99999.53;4885703;29;20206;-88
2023/10/05 13:46:24;;;;;;;4.07;1.88;;;;;;;;;;4882074;29;20222;-88
2023/10/05 13:48:56;;;;;;;2.95;2.00;;;;;;;23.42;70.07;99997.91;4906942;29;20233;-88
2023/10/05 13:51:24;;;;;;;2.80;1.98;;;;;;;23.26;69.69;99991.00;4924526;29;20195;-87
2023/10/05 13:53:56;;;;;;;4.43;2.35;;;;;;;22.89;70.15;99983.56;4900645;29;20263;-88
2023/10/05 13:56:30;;;;;;;3.97;2.03;;;;;;;22.87;70.55;99988.47;4909369;29;20294;-88
2023/10/05 13:59:02;;;;;;;2.78;2.22;;;;;;;22.89;71.14;99983.56;4928176;29;20210;-88
2023/10/05 14:01:43;;;;;;;3.85;2.30;;;;;;;22.63;70.16;99983.00;4923434;29;20263;-88
2023/10/05 14:04:18;;;;;;;5.32;2.30;;;;;;;22.61;70.40;99978.94;4953690;29;20220;-88
2023/10/05 14:06:47;;;;;;;8.10;1.90;;;;;;;22.66;72.15;99987.91;4920959;29;20215;-88
2023/10/05 14:09:22;;;;;;;3.83;1.92;;;;;;;22.73;73.63;99980.19;4906272;29;20217;-88
2023/10/05 14:11:52;;;;;;;3.38;1.90;;;;;;;22.70;70.65;99972.59;4914127;29;20236;-88
2023/10/05 14:14:20;;;;;;;3.33;2.22;;;;;;;22.64;72.40;99970.97;4923900;29;20289;-88
2023/10/05 14:16:54;;;;;;;3.10;1.75;;;;;;;22.81;72.24;99959.63;4898818;29;20301;-88
2023/10/05 14:19:22;;;;;;;4.95;2.00;;;;;;;22.90;73.66;99967.97;4908185;29;20248;-88
2023/10/05 14:21:55;;;;;;;3.50;2.05;;;;;;;22.98;72.92;99970.06;4919606;29;20288;-88
2023/10/05 14:24:34;;;;;;;3.10;2.15;;;;;;;22.96;74.08;99966.78;4906083;29;20212;-89
2023/10/05 14:27:05;;;;;;;3.47;2.05;;;;;;;22.82;73.91;99964.78;4907261;29;20216;-88
2023/10/05 14:29:34;;;;;;;4.78;2.50;;;;;;;22.82;76.53;99970.25;4917344;29;20202;-88
2023/10/05 14:32:09;;;;;;;5.90;2.40;;;;;;;22.80;79.10;99969.72;4934454;29;20267;-88
2023/10/05 14:34:41;;;;;;;4.18;2.20;;;;;;;22.68;80.39;99972.00;4913708;29;20255;-88
2023/10/05 14:37:10;;;;;;;2.97;2.15;;;;;;;22.56;75.12;99971.63;4924105;29;20202;-88
2023/10/05 14:39:44;;;;;;;3.05;2.05;;;;;;;22.52;75.39;99977.94;4913022;29;20198;-88
2023/10/05 14:42:14;;;;;;;3.90;2.40;;;;;;;22.40;75.08;99981.06;4924179;29;20723;-88
2023/10/05 14:44:59;;;;;;;3.75;2.40;;;;;;;22.27;81.06;99979.84;4930946;29;20204;-88
2023/10/05 14:47:29;;;;;;;5.28;2.20;;;;;;;22.22;81.48;99977.16;4936428;29;20209;-88
2023/10/05 14:50:12;;;;;;;5.07;2.17;;;;;;;22.05;79.18;99975.97;4940027;29;20844;-88
2023/10/05 14:52:49;;;;;;;5.80;2.22;;;;;;;22.01;84.26;99981.19;4950562;29;20200;-88
2023/10/05 14:55:25;;;;;;;4.32;2.28;;;;;;;21.93;79.46;99987.22;4901682;29;20236;-88
2023/10/05 14:57:57;;;;;;;3.00;2.30;;;;;;;21.90;85.89;99987.78;4890980;29;20635;-88
2023/10/05 15:00:29;;;;;;;2.28;1.92;;;;;;;21.76;85.06;99984.88;4932601;29;20287;-88
2023/10/05 15:03:02;;;;;;;2.72;2.00;;;;;;;21.69;88.09;99983.59;4945093;29;20288;-88
2023/10/05 15:05:31;;;;;;;5.75;1.98;;;;;;;21.55;86.19;99997.06;4915341;29;20245;-89
2023/10/05 15:08:02;;;;;;;3.28;2.10;;;;;;;21.50;88.20;99999.81;4922601;29;20216;-89
2023/10/05 15:10:33;;;;;;;3.78;2.22;;;;;;;21.36;85.72;100002.34;4912468;29;20276;-87
2023/10/05 15:13:02;;;;;;;3.45;2.38;;;;;;;21.13;85.48;99999.44;4936079;29;20204;-79
2023/10/05 15:15:30;;;;;;;3.67;2.40;;;;;;;21.09;87.31;99996.44;4947840;29;20234;-79
2023/10/05 15:17:57;;;;;;;6.32;2.90;;;;;;;20.99;89.85;100002.78;4948196;29;20224;-80
2023/10/05 15:20:32;;;;;;;4.63;2.40;;;;;;;20.85;84.81;99995.47;4951946;29;20766;-80
2023/10/05 15:23:09;;;;;;;2.58;1.80;;;;;;;20.86;80.47;99987.00;4934673;29;20221;-80
2023/10/05 15:25:41;;;;;;;2.65;2.00;;;;;;;20.80;79.77;99982.69;4936536;29;20197;-79
2023/10/05 15:28:16;;;;;;;3.80;2.10;;;;;;;20.67;81.50;99986.81;4934972;29;20293;-80
2023/10/05 15:30:48;;;;;;;2.45;2.03;;;;;;;20.54;99.72;99984.66;4930988;29;20211;-80
2023/10/05 15:33:19;;;;;;;2.40;1.92;;;;;;;20.38;100.00;99998.59;4938406;29;20201;-82
2023/10/05 15:35:46;;;;;;;5.18;2.03;;;;;;;20.08;100.00;100002.13;4936727;29;20321;-81
2023/10/05 15:38:13;;;;;;;3.55;2.10;;;;;;;19.98;100.00;99983.09;4927161;29;20210;-79
2023/10/05 15:40:44;;;;;;;4.93;1.90;;;;;;;19.91;96.38;99985.28;4935903;29;20208;-79
2023/10/05 15:43:16;;;;;;;3.57;2.00;;;;;;;19.81;93.23;99977.94;4931567;29;20212;-81
2023/10/05 15:45:48;;;;;;;3.53;2.07;;;;;;;19.81;91.29;99996.16;4945937;29;20201;-80
2023/10/05 15:48:19;;;;;;;5.53;2.20;;;;;;;19.61;90.21;99996.94;4948187;29;20201;-81
2023/10/05 15:50:48;;;;;;;3.90;1.80;;;;;;;19.54;87.34;99999.13;4934317;29;20335;-81
2023/10/05 15:53:21;;;;;;;2.97;1.83;;;;;;;19.54;82.18;100002.66;4933605;29;20251;-80
2023/10/05 15:55:51;;;;;;;2.60;2.10;;;;;;;19.45;80.05;100006.97;4927868;29;20699;-80
2023/10/05 15:58:22;;;;;;;3.63;2.10;;;;;;;19.36;77.15;100003.13;4934828;29;20256;-80
2023/10/05 16:00:55;;;;;;;2.87;2.00;;;;;;;19.23;77.58;99999.00;4934449;29;20192;-79
2023/10/05 16:03:29;;;;;;;2.30;1.80;;;;;;;19.06;77.76;100003.00;4921341;29;20199;-80
2023/10/05 16:06:03;;;;;;;2.60;1.93;;;;;;;19.07;77.81;100001.94;4917793;29;20257;-80
2023/10/05 16:08:31;;;;;;;4.57;2.10;;;;;;;18.95;76.57;100013.00;4910888;29;20210;-79
2023/10/05 16:11:05;;;;;;;5.23;1.90;;;;;;;18.87;76.41;100014.34;4924390;29;20204;-80
2023/10/05 16:13:32;;;;;;;2.77;2.10;;;;;;;18.87;75.91;100027.09;4927510;29;20699;-79
2023/10/05 16:16:02;;;;;;;5.23;2.00;;;;;;;18.86;74.62;100025.47;4931355;29;20227;-80
2023/10/05 16:18:37;;;;;;;2.90;2.00;;;;;;;18.71;76.23;100033.53;4929670;29;20202;-80
2023/10/05 16:21:08;;;;;;;2.67;2.10;;;;;;;18.69;75.35;100019.41;4931434;29;20226;-79
2023/10/05 16:23:39;;;;;;;5.10;2.30;;;;;;;18.59;76.18;100035.63;4925644;29;20211;-89
2023/10/05 16:26:08;;;;;;;4.43;2.00;;;;;;;18.52;77.33;100035.84;4932895;29;20213;-89
2023/10/05 16:28:38;;;;;;;3.20;1.93;;;;;;;18.32;78.47;100041.94;4886679;29;20210;-89
2023/10/05 16:31:08;;;;;;;3.03;1.80;;;;;;;18.23;79.56;100046.22;4934308;29;20262;-89
2023/10/05 16:33:37;;;;;;;3.23;2.47;;;;;;;18.22;80.72;100046.47;4909946;29;20206;-89
2023/10/05 16:36:10;;;;;;;3.70;2.40;;;;;;;18.09;82.66;100044.19;4911305;29;20243;-89
2023/10/05 16:38:40;;;;;;;3.17;2.20;;;;;;;18.01;83.01;100050.88;4903478;29;20203;-88
2023/10/05 16:41:13;;;;;;;4.43;2.13;;;;;;;17.93;83.95;100052.19;4919892;29;20264;-89
2023/10/05 16:43:46;;;;;;;2.70;2.10;;;;;;;18.02;83.92;100050.63;4933058;29;20194;-89
2023/10/05 16:46:21;;;;;;;3.77;2.10;;;;;;;17.92;85.06;100052.44;4935586;29;20220;-89
2023/10/05 16:48:52;;;;;;;3.77;1.97;;;;;;;17.89;86.29;100053.78;4934050;29;20305;-89
2023/10/05 16:51:23;;;;;;;3.73;1.97;;;;;;;17.90;87.38;100041.03;4921153;29;20205;-88
2023/10/05 16:53:52;;;;;;;2.80;2.10;;;;;;;17.86;89.28;100046.16;4935342;29;20230;-87
2023/10/05 16:56:21;;;;;;;4.00;2.00;;;;;;;17.88;90.43;100054.84;4902922;29;20229;-87
2023/10/05 16:59:08;;;;;;;3.80;2.70;;;;;;;17.82;91.63;100046.94;4934353;29;20194;-87
2023/10/05 17:01:39;;;;;;;2.77;2.20;;;;;;;17.88;91.42;100054.03;4894420;29;20235;-87
2023/10/05 17:04:13;;;;;;;3.60;2.00;;;;;;;17.82;92.29;100065.91;4904170;29;20229;-88
2023/10/05 17:06:50;;;;;;;2.93;2.00;;;;;;;17.87;92.26;100058.63;4932179;29;20230;-87
2023/10/05 17:09:26;;;;;;;3.10;1.93;;;;;;;17.81;91.90;100059.66;4917090;29;20259;-87
2023/10/05 17:11:57;;;;;;;6.23;2.10;;;;;;;17.86;92.04;100067.03;4906198;29;20211;-87
2023/10/05 17:14:28;;;;;;;2.30;1.90;;;;;;;17.76;93.20;100069.63;4893332;29;20216;-86
2023/10/05 17:16:56;;;;;;;3.07;2.17;;;;;;;17.66;94.75;100075.78;4910777;29;20226;-87
2023/10/05 17:19:28;;;;;;;3.40;2.10;;;;;;;17.72;94.86;100073.94;4905833;29;20233;-87
2023/10/05 17:22:00;;;;;;;2.53;2.00;;;;;;;17.69;95.52;100072.53;4905616;29;20286;-87
2023/10/05 17:24:29;;;;;;;4.30;2.20;;;;;;;17.62;96.84;100082.78;4902357;29;20251;-87
2023/10/05 17:27:05;;;;;;;3.90;2.30;;;;;;;17.59;98.32;100077.84;4894229;29;20210;-87
2023/10/05 17:29:35;;;;;;;3.80;2.27;;;;;;;17.53;99.83;100093.22;4914103;29;20214;-87
2023/10/05 17:32:09;;;;;;;3.60;2.30;;;;;;;17.57;99.99;100091.63;4904141;29;20206;-87
2023/10/05 17:34:38;;;;;;;3.93;2.40;;;;;;;17.58;100.00;100096.00;4903826;29;20206;-87
2023/10/05 17:37:06;;;;;;;2.80;2.30;;;;;;;17.70;100.00;100095.84;4913479;29;20237;-87
2023/10/05 17:39:36;;;;;;;2.10;1.90;;;;;;;17.65;100.00;100103.94;4902229;29;20197;-88
2023/10/05 17:42:09;;;;;;;4.17;2.40;;;;;;;17.57;100.00;100107.88;4892830;29;20588;-87
2023/10/05 17:44:40;;;;;;;3.37;2.00;;;;;;;17.55;100.00;100114.63;4904377;29;20725;-87
2023/10/05 17:47:09;;;;;;;3.83;2.40;;;;;;;17.56;100.00;100110.84;4892411;29;20234;-87
2023/10/05 17:49:39;;;;;;;5.70;2.40;;;;;;;17.45;100.00;100112.59;4908177;29;20239;-88
2023/10/05 17:52:07;;;;;;;4.77;1.90;;;;;;;17.50;100.00;100119.97;4880142;29;20236;-88
2023/10/05 17:54:35;;;;;;;3.37;2.20;;;;;;;17.55;100.00;100122.75;4922878;29;20257;-87
2023/10/05 17:57:04;;;;;;;3.40;2.00;;;;;;;17.52;100.00;100134.91;4900769;29;20709;-87
2023/10/05 17:59:31;;;;;;;3.93;2.20;;;;;;;17.41;100.00;100137.75;4895276;29;20272;-87
2023/10/05 18:01:58;;;;;;;4.30;2.30;;;;;;;17.40;100.00;100139.66;4893130;29;20194;-87
2023/10/05 18:04:32;;;;;;;2.73;2.00;;;;;;;17.32;100.00;100142.78;4903195;29;20226;-87
2023/10/05 18:07:00;;;;;;;3.10;2.10;;;;;;;17.41;100.00;100137.75;4919228;29;20629;-87
2023/10/05 18:09:28;;;;;;;3.60;2.50;;;;;;;17.29;100.00;100142.47;4906085;29;20201;-87
2023/10/05 18:11:59;;;;;;;2.67;2.10;;;;;;;17.30;100.00;100141.41;4921900;29;20202;-87
2023/10/05 18:14:30;;;;;;;3.57;2.30;;;;;;;17.28;100.00;100148.94;4909500;29;20208;-86
2023/10/05 18:17:10;;;;;;;4.90;2.30;;;;;;;17.31;100.00;100148.47;4908901;29;20250;-87
2023/10/05 18:19:38;;;;;;;5.50;2.33;;;;;;;17.29;100.00;100148.72;4904634;29;20716;-87
2023/10/05 18:22:07;;;;;;;3.27;2.27;;;;;;;17.31;100.00;100149.25;4926151;29;20215;-88
2023/10/05 18:24:39;;;;;;;2.97;2.10;;;;;;;17.27;100.00;100156.25;4916145;29;20209;-88
2023/10/05 18:27:11;;;;;;;2.87;1.83;;;;;;;17.30;100.00;100144.94;4920527;29;20204;-87
2023/10/05 18:29:42;;;;;;;3.03;2.07;;;;;;;17.28;100.00;100160.59;4905310;29;20241;-88
2023/10/05 18:32:14;;;;;;;3.10;2.20;;;;;;;17.31;100.00;100160.09;4924670;29;20663;-88
2023/10/05 18:34:41;;;;;;;2.97;2.43;;;;;;;17.31;100.00;100164.72;4928616;29;20697;-87
2023/10/05 18:37:14;;;;;;;2.77;2.20;;;;;;;17.31;100.00;100162.78;4921799;29;20234;-88
2023/10/05 18:39:42;;;;;;;3.10;2.50;;;;;;;17.35;100.00;100163.13;4915681;29;20214;-86
2023/10/05 18:42:20;;;;;;;3.40;2.47;;;;;;;17.37;100.00;100163.69;4921587;29;20205;-87
2023/10/05 18:45:00;;;;;;;5.00;2.33;;;;;;;17.28;100.00;100176.84;4911618;29;20205;-88
2023/10/05 18:47:28;;;;;;;3.63;2.10;;;;;;;17.24;100.00;100178.41;4913188;29;20198;-88
2023/10/05 18:49:55;;;;;;;2.70;1.87;;;;;;;17.27;100.00;100180.63;4889537;29;20234;-87
2023/10/05 18:52:25;;;;;;;4.40;2.20;;;;;;;17.29;100.00;100169.56;4910045;29;20241;-87
2023/10/05 18:54:54;;;;;;;3.67;2.30;;;;;;;17.12;100.00;100175.00;4924667;29;20694;-87
2023/10/05 18:57:28;;;;;;;2.90;2.10;;;;;;;17.21;100.00;100181.63;4925506;29;20220;-87
2023/10/05 19:00:03;;;;;;;3.63;2.00;;;;;;;17.09;100.00;100179.03;4945243;29;20670;-87
2023/10/05 19:02:39;;;;;;;3.80;2.30;;;;;;;17.08;100.00;100179.25;4925204;29;20201;-88
2023/10/05 19:05:16;;;;;;;3.77;2.27;;;;;;;17.13;100.00;100184.75;4938495;29;20674;-88
2023/10/05 19:07:46;;;;;;;4.63;2.20;;;;;;;17.13;100.00;100185.56;4907690;29;20209;-88
2023/10/05 19:10:14;;;;;;;4.23;2.10;;;;;;;17.05;100.00;100182.47;4917023;29;20201;-87
2023/10/05 19:12:46;;;;;;;2.53;2.00;;;;;;;16.96;100.00;100182.09;4916021;29;20193;-86
2023/10/05 19:15:13;;;;;;;2.60;2.00;;;;;;;16.96;100.00;100181.25;4920865;29;20289;-87
2023/10/05 19:17:43;;;;;;;3.87;2.10;;;;;;;16.99;100.00;100188.88;4918459;29;20320;-88
2023/10/05 19:20:20;;;;;;;2.77;2.00;;;;;;;16.98;100.00;100179.94;4948970;29;20345;-88
2023/10/05 19:22:49;;;;;;;3.83;2.13;;;;;;;16.90;100.00;100185.78;4911066;29;20272;-88
2023/10/05 19:25:18;;;;;;;2.70;2.10;;;;;;;16.85;100.00;100188.41;4898086;29;20193;-88
2023/10/05 19:27:46;;;;;;;2.90;2.13;;;;;;;16.88;100.00;100181.69;4909795;29;20220;-88
2023/10/05 19:30:15;;;;;;;3.70;2.03;;;;;;;16.90;100.00;100185.78;4909652;29;20216;-88
2023/10/05 19:32:47;;;;;;;4.17;2.10;;;;;;;16.94;100.00;100186.09;4899596;29;20208;-88
2023/10/05 19:35:16;;;;;;;2.27;1.90;;;;;;;16.83;100.00;100189.72;4927644;29;20194;-88
2023/10/05 19:37:45;;;;;;;3.90;2.30;;;;;;;16.84;100.00;100194.06;4912555;29;20432;-88
2023/10/05 19:40:14;;;;;;;5.93;2.20;;;;;;;16.79;100.00;100202.94;4947911;29;20189;-89
2023/10/05 19:42:46;;;;;;;3.53;2.33;;;;;;;16.76;100.00;100199.88;4911517;29;20202;-88
2023/10/05 19:45:18;;;;;;;2.93;2.03;;;;;;;16.73;100.00;100202.03;4913269;29;20243;-88
2023/10/05 19:47:56;;;;;;;2.70;1.83;;;;;;;16.75;100.00;100206.38;4930299;29;20205;-88
2023/10/05 19:50:27;;;;;;;4.07;2.00;;;;;;;16.67;100.00;100207.59;4897566;29;20234;-88